Ruby Princess — ZCDY2 — position and weather

sailwx.info

Track history (hours):
 
Tides and Currents Weather Stations Pressure Air Temp Water Temp Dewpoint Dewpoint Depression Visibility Wind Speed Wind Dir Waves Ship Positions

Ruby Princess

Last reported at 2017-Aug-20 10:28 UTC. Time now 2017-Aug-20 13:40 UTC.
Position N 49°28' W 126°56'.

Length 289 m; draft 8.6 m.

Type: Ship. MMSI: 310567000.

Date/timePositionNaut miles runAvg speedWind from/ knotsBaromVisibWave heightAir tempDewpointWater temp
2017-Aug-20 10:28N 49°28' W 126°56'1021.4
2017-Aug-20 10:00N 49°22' W 126°44'1120.9
2017-Aug-20 09:29N 49°15' W 126°31'1021.1
2017-Aug-20 09:00N 49°09' W 126°19'1121.2
2017-Aug-20 08:30N 49°02' W 126°06'1020.9
2017-Aug-20 08:00N 48°56' W 125°54'1020.7
2017-Aug-20 07:30N 48°49' W 125°41'1020.9
2017-Aug-20 07:00N 48°45' W 125°27'1121.2
2017-Aug-20 06:30N 48°40' W 125°13'1121.6
2017-Aug-20 06:00N 48°35' W 124°58'2156.4
2017-Aug-20 06:00N 48°36' W 125°00'1225.1 270 / 231022.9 5.4 13.011.111.0
2017-Aug-20 05:30N 48°31' W 124°43'1121.7
2017-Aug-20 05:00N 48°27' W 124°28'1121.6
2017-Aug-20 04:30N 48°22' W 124°13'1121.7
2017-Aug-20 04:00N 48°18' W 123°58'1121.5
2017-Aug-20 03:29N 48°16' W 123°42'1021.1
2017-Aug-20 03:00N 48°13' W 123°27'612.3
2017-Aug-20 02:29N 48°09' W 123°20'1020.9
2017-Aug-20 02:00N 48°13' W 123°06'1020.4
2017-Aug-20 01:30N 48°12' W 122°51'1119.9
2017-Aug-20 00:58N 48°05' W 122°39'920.3
2017-Aug-20 00:30N 47°57' W 122°32'918.9
2017-Aug-20 00:00N 47°48' W 122°26'918.9
2017-Aug-19 23:30N 47°39' W 122°27'3 6.5
2017-Aug-19 23:00N 47°38' W 122°23'0 0.0
2017-Aug-19 22:30N 47°38' W 122°23'0 0.0
2017-Aug-19 22:00N 47°38' W 122°23'0 0.0
2017-Aug-19 21:30N 47°38' W 122°23'0 0.0
2017-Aug-19 20:59N 47°38' W 122°23'0 0.0
2017-Aug-19 20:29N 47°38' W 122°23'0 0.0
2017-Aug-19 19:59N 47°38' W 122°23'0 0.0
2017-Aug-19 19:29N 47°38' W 122°23'0 0.0
2017-Aug-19 18:59N 47°38' W 122°23'0 0.0
2017-Aug-19 18:28N 47°38' W 122°23'0 0.0
2017-Aug-19 17:58N 47°38' W 122°23'0 0.0
2017-Aug-19 17:28N 47°38' W 122°23'0 0.0
2017-Aug-19 16:58N 47°38' W 122°23'0 0.0
2017-Aug-19 16:30N 47°38' W 122°23'0 0.0
2017-Aug-19 16:00N 47°38' W 122°23'0 0.0
2017-Aug-19 15:30N 47°38' W 122°23'0 0.0
2017-Aug-19 15:00N 47°38' W 122°23'0 0.0
2017-Aug-19 13:59N 47°38' W 122°23'0 0.0
2017-Aug-19 13:26N 47°38' W 122°23'0 0.0
2017-Aug-19 13:01N 47°38' W 122°23'2 4.0
2017-Aug-19 12:31N 47°37' W 122°26'510.8
2017-Aug-19 12:01N 47°42' W 122°28'714.1
2017-Aug-19 11:30N 47°49' W 122°28'714.8
2017-Aug-19 11:00N 47°56' W 122°32'714.4
2017-Aug-19 10:30N 48°02' W 122°39'815.1
2017-Aug-19 10:00N 48°09' W 122°44'918.7
2017-Aug-19 09:30N 48°11' W 122°57'918.5
2017-Aug-19 09:00N 48°12' W 123°11'917.2
2017-Aug-19 08:30N 48°10' W 123°23'815.0
2017-Aug-19 08:00N 48°16' W 123°30'815.6
2017-Aug-19 07:30N 48°22' W 123°24'3 3.2
2017-Aug-19 06:40N 48°25' W 123°24'0 0.0
2017-Aug-19 05:45N 48°25' W 123°24'0 0.0
2017-Aug-19 05:27N 48°25' W 123°24'0 0.0
2017-Aug-19 01:50N 48°25' W 123°24'0 0.5
2017-Aug-19 01:30N 48°25' W 123°24'3 6.0
2017-Aug-19 01:01N 48°22' W 123°24'815.3
2017-Aug-19 00:31N 48°15' W 123°28'1020.6
2017-Aug-19 00:00N 48°13' W 123°43'1020.3
2017-Aug-18 23:30N 48°15' W 123°58'1021.2
2017-Aug-18 23:00N 48°19' W 124°13'1121.1
2017-Aug-18 22:31N 48°23' W 124°27'1020.9
2017-Aug-18 22:01N 48°28' W 124°41'1120.3
2017-Aug-18 21:29N 48°29' W 124°57'1021.9
2017-Aug-18 21:00N 48°30' W 125°13'1122.0
2017-Aug-18 20:31N 48°36' W 125°27'1121.5
2017-Aug-18 20:01N 48°42' W 125°40'1121.5
2017-Aug-18 19:31N 48°48' W 125°53'1020.7
2017-Aug-18 19:01N 48°54' W 126°06'1020.9
2017-Aug-18 18:31N 49°00' W 126°19'1020.8
2017-Aug-18 18:01N 49°06' W 126°32'1121.1
2017-Aug-18 17:30N 49°12' W 126°46'1121.1
2017-Aug-18 16:59N 49°20' W 126°58'6020.0
2017-Aug-18 14:00N 50°00' W 128°06'8523.3 230 / 71020.4 5.4 15.014.115.0
2017-Aug-18 10:21N 51°09' W 129°25'3 9.6
2017-Aug-18 10:00N 51°12' W 129°24'5363.1 240 / 231014.1 5.4 15.014.114.0
2017-Aug-18 09:59N 51°16' W 129°29'14220.4
2017-Aug-18 03:00N 53°30' W 130°48'25910.8 170 / 261010.910.8 14.512.714.0
2017-Aug-17 03:00N 57°12' W 134°42'7120.4 140 / 191011.010.8 12.511.610.0
2017-Aug-16 23:29N 58°16' W 135°40'918.8
2017-Aug-16 23:00N 58°20' W 135°56'714.8
2017-Aug-16 22:30N 58°27' W 136°00'917.5
2017-Aug-16 22:00N 58°35' W 136°03'917.6
2017-Aug-16 21:30N 58°43' W 136°10'2 0.3
2017-Aug-16 15:00N 58°42' W 136°12'1 9.3 270 / 121005.510.8 9.5 6.3 9.0
2017-Aug-16 14:50N 58°41' W 136°11'617.5
2017-Aug-16 14:30N 58°36' W 136°05'918.1
2017-Aug-16 14:00N 58°27' W 136°01'510.5
2017-Aug-16 13:30N 58°22' W 135°57'612.1
2017-Aug-16 13:00N 58°18' W 135°48'913.4
2017-Aug-16 12:20N 58°15' W 135°32'35 6.6
2017-Aug-16 07:00N 58°48' W 135°06'94 2.3 010 / 31006.710.8 11.0 9.013.0
2017-Aug-14 15:00N 57°24' W 133°48'55918.7 160 / 231010.2 11.5 9.510.0
2017-Aug-13 09:07N 49°12' W 126°24'322.3
2017-Aug-13 08:59N 49°10' W 126°21'1122.1
2017-Aug-13 08:30N 49°04' W 126°08'1122.0
2017-Aug-13 08:00N 48°57' W 125°55'1121.9
2017-Aug-13 07:31N 48°50' W 125°42'1122.6
2017-Aug-13 07:01N 48°44' W 125°27'1223.4
2017-Aug-13 06:30N 48°39' W 125°11'1223.8
2017-Aug-13 06:00N 48°34' W 124°55'1223.7
2017-Aug-13 05:31N 48°30' W 124°39'1223.4
2017-Aug-13 05:01N 48°25' W 124°22'1122.5
2017-Aug-13 04:30N 48°21' W 124°07'1222.0
2017-Aug-13 03:59N 48°17' W 123°50'1121.5
2017-Aug-13 03:28N 48°15' W 123°34'817.8
2017-Aug-13 03:00N 48°11' W 123°23'510.2
2017-Aug-13 02:30N 48°10' W 123°16'918.5
2017-Aug-13 02:00N 48°12' W 123°02'919.1
2017-Aug-13 01:30N 48°11' W 122°48'816.8
2017-Aug-13 01:00N 48°06' W 122°39'919.0
2017-Aug-13 00:30N 47°57' W 122°33'1020.5
2017-Aug-13 00:01N 47°48' W 122°26'919.0
2017-Aug-12 23:31N 47°39' W 122°27'3 5.2
2017-Aug-12 23:00N 47°38' W 122°23'0 0.0
2017-Aug-12 22:29N 47°38' W 122°23'0 0.0
2017-Aug-12 21:59N 47°38' W 122°23'0 0.0
2017-Aug-12 21:29N 47°38' W 122°23'0 0.0
2017-Aug-12 20:59N 47°38' W 122°23'0 0.0
2017-Aug-12 20:28N 47°38' W 122°23'0 0.0
2017-Aug-12 19:59N 47°38' W 122°23'0 0.0
2017-Aug-12 19:25N 47°38' W 122°23'0 0.0
2017-Aug-12 18:58N 47°38' W 122°23'0 0.0
2017-Aug-12 18:30N 47°38' W 122°23'0 0.0
2017-Aug-12 18:00N 47°38' W 122°23'0 0.0
2017-Aug-12 17:29N 47°38' W 122°23'0 0.0
2017-Aug-12 16:59N 47°38' W 122°23'0 0.0
2017-Aug-12 16:29N 47°38' W 122°23'0 0.0
2017-Aug-12 15:58N 47°38' W 122°23'0 0.0
2017-Aug-12 15:28N 47°38' W 122°23'0 0.0
2017-Aug-12 15:00N 47°38' W 122°23'0 0.0
2017-Aug-12 14:29N 47°38' W 122°23'0 0.0
2017-Aug-12 14:00N 47°38' W 122°23'0 0.0
2017-Aug-12 13:30N 47°38' W 122°23'0 0.0
2017-Aug-12 13:01N 47°38' W 122°23'2 3.4
2017-Aug-12 12:30N 47°37' W 122°25'510.9
2017-Aug-12 12:00N 47°42' W 122°27'714.4
2017-Aug-12 11:30N 47°50' W 122°28'713.5
2017-Aug-12 11:00N 47°56' W 122°32'714.0
2017-Aug-12 10:29N 48°02' W 122°39'715.2
2017-Aug-12 10:00N 48°08' W 122°43'917.2
2017-Aug-12 09:30N 48°12' W 122°55'918.7
2017-Aug-12 09:00N 48°12' W 123°09'917.7
2017-Aug-12 08:30N 48°10' W 123°22'612.5
2017-Aug-12 08:00N 48°13' W 123°31'918.5
2017-Aug-12 07:30N 48°21' W 123°26'4 1.1
2017-Aug-12 04:11N 48°25' W 123°24'0 0.0
2017-Aug-12 03:53N 48°25' W 123°24'0 0.0
2017-Aug-12 03:29N 48°25' W 123°24'0 0.0
2017-Aug-12 02:16N 48°25' W 123°24'0 0.0
2017-Aug-12 01:58N 48°25' W 123°24'0 0.0
2017-Aug-12 01:25N 48°25' W 123°24'0 1.2
2017-Aug-12 01:01N 48°25' W 123°24'611.4
2017-Aug-12 00:30N 48°19' W 123°25'917.4
2017-Aug-12 00:00N 48°13' W 123°35'1121.0
2017-Aug-11 23:30N 48°13' W 123°50'1121.0
2017-Aug-11 23:00N 48°17' W 124°05'1121.7
2017-Aug-11 22:30N 48°21' W 124°20'1019.7
2017-Aug-11 22:00N 48°25' W 124°34'918.2
2017-Aug-11 21:30N 48°29' W 124°46'918.7
2017-Aug-11 21:00N 48°29' W 125°00'918.1
2017-Aug-11 20:30N 48°30' W 125°14'918.3
2017-Aug-11 20:00N 48°35' W 125°25'1020.1
2017-Aug-11 19:30N 48°41' W 125°38'1020.7
2017-Aug-11 19:00N 48°47' W 125°51'1020.3
2017-Aug-11 18:30N 48°53' W 126°03'1020.3
2017-Aug-11 18:00N 48°59' W 126°16'1020.9
2017-Aug-11 17:30N 49°04' W 126°29'1120.9
2017-Aug-11 17:00N 49°11' W 126°42'1120.8
2017-Aug-11 16:29N 49°18' W 126°54'5020.1
2017-Aug-11 14:00N 49°54' W 127°48'958.0 320 / 201015.3 2.2 12.011.013.0
2017-Aug-11 13:50N 50°00' W 127°59'821.8
2017-Aug-11 13:28N 50°06' W 128°07'1022.1
2017-Aug-11 13:00N 50°13' W 128°18'1122.8
2017-Aug-11 12:30N 50°21' W 128°31'1123.0
2017-Aug-11 12:00N 50°30' W 128°43'1122.5
2017-Aug-11 11:30N 50°38' W 128°56'1122.2
2017-Aug-11 11:00N 50°45' W 129°08'6396.2
2017-Aug-11 11:00N 50°42' W 129°00'1735.2 330 / 81015.410.8 14.511.714.0
2017-Aug-11 10:30N 50°55' W 129°17'1122.7
2017-Aug-11 10:00N 51°06' W 129°23'1122.4
2017-Aug-11 09:30N 51°16' W 129°30'1122.6
2017-Aug-11 09:00N 51°27' W 129°36'1122.4
2017-Aug-11 08:31N 51°37' W 129°42'1121.8
2017-Aug-11 08:01N 51°48' W 129°49'1122.2
2017-Aug-11 07:30N 51°58' W 129°55'1121.9
2017-Aug-11 07:00N 52°08' W 130°01'1122.5
2017-Aug-11 06:30N 52°19' W 130°08'1122.6
2017-Aug-11 06:00N 52°29' W 130°14'1122.4
2017-Aug-11 05:30N 52°40' W 130°21'1622.7
2017-Aug-11 04:47N 52°55' W 130°30'  
Track history (hours):
 
Tides and Currents Weather Stations Pressure Air Temp Water Temp Dewpoint Dewpoint Depression Visibility Wind Speed Wind Dir Waves Ship Positions

Ruby Princess

Last reported at 2017-Aug-20 10:28 UTC. Time now 2017-Aug-20 13:40 UTC.
Position N 49°28' W 126°56'.

Length 289 m; draft 8.6 m.

Type: Ship. MMSI: 310567000.

Date/timePositionNaut miles runAvg speedWind from/ knotsBaromVisibWave heightAir tempDewpointWater temp
2017-Aug-20 10:28N 49°28' W 126°56'1021.4
2017-Aug-20 10:00N 49°22' W 126°44'1120.9
2017-Aug-20 09:29N 49°15' W 126°31'1021.1
2017-Aug-20 09:00N 49°09' W 126°19'1121.2
2017-Aug-20 08:30N 49°02' W 126°06'1020.9
2017-Aug-20 08:00N 48°56' W 125°54'1020.7
2017-Aug-20 07:30N 48°49' W 125°41'1020.9
2017-Aug-20 07:00N 48°45' W 125°27'1121.2
2017-Aug-20 06:30N 48°40' W 125°13'1121.6
2017-Aug-20 06:00N 48°35' W 124°58'2156.4
2017-Aug-20 06:00N 48°36' W 125°00'1225.1 270 / 231022.9 5.4 13.011.111.0
2017-Aug-20 05:30N 48°31' W 124°43'1121.7
2017-Aug-20 05:00N 48°27' W 124°28'1121.6
2017-Aug-20 04:30N 48°22' W 124°13'1121.7
2017-Aug-20 04:00N 48°18' W 123°58'1121.5
2017-Aug-20 03:29N 48°16' W 123°42'1021.1
2017-Aug-20 03:00N 48°13' W 123°27'612.3
2017-Aug-20 02:29N 48°09' W 123°20'1020.9
2017-Aug-20 02:00N 48°13' W 123°06'1020.4
2017-Aug-20 01:30N 48°12' W 122°51'1119.9
2017-Aug-20 00:58N 48°05' W 122°39'920.3
2017-Aug-20 00:30N 47°57' W 122°32'918.9
2017-Aug-20 00:00N 47°48' W 122°26'918.9
2017-Aug-19 23:30N 47°39' W 122°27'3 6.5
2017-Aug-19 23:00N 47°38' W 122°23'0 0.0
2017-Aug-19 22:30N 47°38' W 122°23'0 0.0
2017-Aug-19 22:00N 47°38' W 122°23'0 0.0
2017-Aug-19 21:30N 47°38' W 122°23'0 0.0
2017-Aug-19 20:59N 47°38' W 122°23'0 0.0
2017-Aug-19 20:29N 47°38' W 122°23'0 0.0
2017-Aug-19 19:59N 47°38' W 122°23'0 0.0
2017-Aug-19 19:29N 47°38' W 122°23'0 0.0
2017-Aug-19 18:59N 47°38' W 122°23'0 0.0
2017-Aug-19 18:28N 47°38' W 122°23'0 0.0
2017-Aug-19 17:58N 47°38' W 122°23'0 0.0
2017-Aug-19 17:28N 47°38' W 122°23'0 0.0
2017-Aug-19 16:58N 47°38' W 122°23'0 0.0
2017-Aug-19 16:30N 47°38' W 122°23'0 0.0
2017-Aug-19 16:00N 47°38' W 122°23'0 0.0
2017-Aug-19 15:30N 47°38' W 122°23'0 0.0
2017-Aug-19 15:00N 47°38' W 122°23'0 0.0
2017-Aug-19 13:59N 47°38' W 122°23'0 0.0
2017-Aug-19 13:26N 47°38' W 122°23'0 0.0
2017-Aug-19 13:01N 47°38' W 122°23'2 4.0
2017-Aug-19 12:31N 47°37' W 122°26'510.8
2017-Aug-19 12:01N 47°42' W 122°28'714.1
2017-Aug-19 11:30N 47°49' W 122°28'714.8
2017-Aug-19 11:00N 47°56' W 122°32'714.4
2017-Aug-19 10:30N 48°02' W 122°39'815.1
2017-Aug-19 10:00N 48°09' W 122°44'918.7
2017-Aug-19 09:30N 48°11' W 122°57'918.5
2017-Aug-19 09:00N 48°12' W 123°11'917.2
2017-Aug-19 08:30N 48°10' W 123°23'815.0
2017-Aug-19 08:00N 48°16' W 123°30'815.6
2017-Aug-19 07:30N 48°22' W 123°24'3 3.2
2017-Aug-19 06:40N 48°25' W 123°24'0 0.0
2017-Aug-19 05:45N 48°25' W 123°24'0 0.0
2017-Aug-19 05:27N 48°25' W 123°24'0 0.0
2017-Aug-19 01:50N 48°25' W 123°24'0 0.5
2017-Aug-19 01:30N 48°25' W 123°24'3 6.0
2017-Aug-19 01:01N 48°22' W 123°24'815.3
2017-Aug-19 00:31N 48°15' W 123°28'1020.6
2017-Aug-19 00:00N 48°13' W 123°43'1020.3
2017-Aug-18 23:30N 48°15' W 123°58'1021.2
2017-Aug-18 23:00N 48°19' W 124°13'1121.1
2017-Aug-18 22:31N 48°23' W 124°27'1020.9
2017-Aug-18 22:01N 48°28' W 124°41'1120.3
2017-Aug-18 21:29N 48°29' W 124°57'1021.9
2017-Aug-18 21:00N 48°30' W 125°13'1122.0
2017-Aug-18 20:31N 48°36' W 125°27'1121.5
2017-Aug-18 20:01N 48°42' W 125°40'1121.5
2017-Aug-18 19:31N 48°48' W 125°53'1020.7
2017-Aug-18 19:01N 48°54' W 126°06'1020.9
2017-Aug-18 18:31N 49°00' W 126°19'1020.8
2017-Aug-18 18:01N 49°06' W 126°32'1121.1
2017-Aug-18 17:30N 49°12' W 126°46'1121.1
2017-Aug-18 16:59N 49°20' W 126°58'6020.0
2017-Aug-18 14:00N 50°00' W 128°06'8523.3 230 / 71020.4 5.4 15.014.115.0
2017-Aug-18 10:21N 51°09' W 129°25'3 9.6
2017-Aug-18 10:00N 51°12' W 129°24'5363.1 240 / 231014.1 5.4 15.014.114.0
2017-Aug-18 09:59N 51°16' W 129°29'14220.4
2017-Aug-18 03:00N 53°30' W 130°48'25910.8 170 / 261010.910.8 14.512.714.0
2017-Aug-17 03:00N 57°12' W 134°42'7120.4 140 / 191011.010.8 12.511.610.0
2017-Aug-16 23:29N 58°16' W 135°40'918.8
2017-Aug-16 23:00N 58°20' W 135°56'714.8
2017-Aug-16 22:30N 58°27' W 136°00'917.5
2017-Aug-16 22:00N 58°35' W 136°03'917.6
2017-Aug-16 21:30N 58°43' W 136°10'2 0.3
2017-Aug-16 15:00N 58°42' W 136°12'1 9.3 270 / 121005.510.8 9.5 6.3 9.0
2017-Aug-16 14:50N 58°41' W 136°11'617.5
2017-Aug-16 14:30N 58°36' W 136°05'918.1
2017-Aug-16 14:00N 58°27' W 136°01'510.5
2017-Aug-16 13:30N 58°22' W 135°57'612.1
2017-Aug-16 13:00N 58°18' W 135°48'913.4
2017-Aug-16 12:20N 58°15' W 135°32'35 6.6
2017-Aug-16 07:00N 58°48' W 135°06'94 2.3 010 / 31006.710.8 11.0 9.013.0
2017-Aug-14 15:00N 57°24' W 133°48'55918.7 160 / 231010.2 11.5 9.510.0
2017-Aug-13 09:07N 49°12' W 126°24'322.3
2017-Aug-13 08:59N 49°10' W 126°21'1122.1
2017-Aug-13 08:30N 49°04' W 126°08'1122.0
2017-Aug-13 08:00N 48°57' W 125°55'1121.9
2017-Aug-13 07:31N 48°50' W 125°42'1122.6
2017-Aug-13 07:01N 48°44' W 125°27'1223.4
2017-Aug-13 06:30N 48°39' W 125°11'1223.8
2017-Aug-13 06:00N 48°34' W 124°55'1223.7
2017-Aug-13 05:31N 48°30' W 124°39'1223.4
2017-Aug-13 05:01N 48°25' W 124°22'1122.5
2017-Aug-13 04:30N 48°21' W 124°07'1222.0
2017-Aug-13 03:59N 48°17' W 123°50'1121.5
2017-Aug-13 03:28N 48°15' W 123°34'817.8
2017-Aug-13 03:00N 48°11' W 123°23'510.2
2017-Aug-13 02:30N 48°10' W 123°16'918.5
2017-Aug-13 02:00N 48°12' W 123°02'919.1
2017-Aug-13 01:30N 48°11' W 122°48'816.8
2017-Aug-13 01:00N 48°06' W 122°39'919.0
2017-Aug-13 00:30N 47°57' W 122°33'1020.5
2017-Aug-13 00:01N 47°48' W 122°26'919.0
2017-Aug-12 23:31N 47°39' W 122°27'3 5.2
2017-Aug-12 23:00N 47°38' W 122°23'0 0.0
2017-Aug-12 22:29N 47°38' W 122°23'0 0.0
2017-Aug-12 21:59N 47°38' W 122°23'0 0.0
2017-Aug-12 21:29N 47°38' W 122°23'0 0.0
2017-Aug-12 20:59N 47°38' W 122°23'0 0.0
2017-Aug-12 20:28N 47°38' W 122°23'0 0.0
2017-Aug-12 19:59N 47°38' W 122°23'0 0.0
2017-Aug-12 19:25N 47°38' W 122°23'0 0.0
2017-Aug-12 18:58N 47°38' W 122°23'0 0.0
2017-Aug-12 18:30N 47°38' W 122°23'0 0.0
2017-Aug-12 18:00N 47°38' W 122°23'0 0.0
2017-Aug-12 17:29N 47°38' W 122°23'0 0.0
2017-Aug-12 16:59N 47°38' W 122°23'0 0.0
2017-Aug-12 16:29N 47°38' W 122°23'0 0.0
2017-Aug-12 15:58N 47°38' W 122°23'0 0.0
2017-Aug-12 15:28N 47°38' W 122°23'0 0.0
2017-Aug-12 15:00N 47°38' W 122°23'0 0.0
2017-Aug-12 14:29N 47°38' W 122°23'0 0.0
2017-Aug-12 14:00N 47°38' W 122°23'0 0.0
2017-Aug-12 13:30N 47°38' W 122°23'0 0.0
2017-Aug-12 13:01N 47°38' W 122°23'2 3.4
2017-Aug-12 12:30N 47°37' W 122°25'510.9
2017-Aug-12 12:00N 47°42' W 122°27'714.4
2017-Aug-12 11:30N 47°50' W 122°28'713.5
2017-Aug-12 11:00N 47°56' W 122°32'714.0
2017-Aug-12 10:29N 48°02' W 122°39'715.2
2017-Aug-12 10:00N 48°08' W 122°43'917.2
2017-Aug-12 09:30N 48°12' W 122°55'918.7
2017-Aug-12 09:00N 48°12' W 123°09'917.7
2017-Aug-12 08:30N 48°10' W 123°22'612.5
2017-Aug-12 08:00N 48°13' W 123°31'918.5
2017-Aug-12 07:30N 48°21' W 123°26'4 1.1
2017-Aug-12 04:11N 48°25' W 123°24'0 0.0
2017-Aug-12 03:53N 48°25' W 123°24'0 0.0
2017-Aug-12 03:29N 48°25' W 123°24'0 0.0
2017-Aug-12 02:16N 48°25' W 123°24'0 0.0
2017-Aug-12 01:58N 48°25' W 123°24'0 0.0
2017-Aug-12 01:25N 48°25' W 123°24'0 1.2
2017-Aug-12 01:01N 48°25' W 123°24'611.4
2017-Aug-12 00:30N 48°19' W 123°25'917.4
2017-Aug-12 00:00N 48°13' W 123°35'1121.0
2017-Aug-11 23:30N 48°13' W 123°50'1121.0
2017-Aug-11 23:00N 48°17' W 124°05'1121.7
2017-Aug-11 22:30N 48°21' W 124°20'1019.7
2017-Aug-11 22:00N 48°25' W 124°34'918.2
2017-Aug-11 21:30N 48°29' W 124°46'918.7
2017-Aug-11 21:00N 48°29' W 125°00'918.1
2017-Aug-11 20:30N 48°30' W 125°14'918.3
2017-Aug-11 20:00N 48°35' W 125°25'1020.1
2017-Aug-11 19:30N 48°41' W 125°38'1020.7
2017-Aug-11 19:00N 48°47' W 125°51'1020.3
2017-Aug-11 18:30N 48°53' W 126°03'1020.3
2017-Aug-11 18:00N 48°59' W 126°16'1020.9
2017-Aug-11 17:30N 49°04' W 126°29'1120.9
2017-Aug-11 17:00N 49°11' W 126°42'1120.8
2017-Aug-11 16:29N 49°18' W 126°54'5020.1
2017-Aug-11 14:00N 49°54' W 127°48'958.0 320 / 201015.3 2.2 12.011.013.0
2017-Aug-11 13:50N 50°00' W 127°59'821.8
2017-Aug-11 13:28N 50°06' W 128°07'1022.1
2017-Aug-11 13:00N 50°13' W 128°18'1122.8
2017-Aug-11 12:30N 50°21' W 128°31'1123.0
2017-Aug-11 12:00N 50°30' W 128°43'1122.5
2017-Aug-11 11:30N 50°38' W 128°56'1122.2
2017-Aug-11 11:00N 50°45' W 129°08'6396.2
2017-Aug-11 11:00N 50°42' W 129°00'1735.2 330 / 81015.410.8 14.511.714.0
2017-Aug-11 10:30N 50°55' W 129°17'1122.7
2017-Aug-11 10:00N 51°06' W 129°23'1122.4
2017-Aug-11 09:30N 51°16' W 129°30'1122.6
2017-Aug-11 09:00N 51°27' W 129°36'1122.4
2017-Aug-11 08:31N 51°37' W 129°42'1121.8
2017-Aug-11 08:01N 51°48' W 129°49'1122.2
2017-Aug-11 07:30N 51°58' W 129°55'1121.9
2017-Aug-11 07:00N 52°08' W 130°01'1122.5
2017-Aug-11 06:30N 52°19' W 130°08'1122.6
2017-Aug-11 06:00N 52°29' W 130°14'1122.4
2017-Aug-11 05:30N 52°40' W 130°21'1622.7
2017-Aug-11 04:47N 52°55' W 130°30'  

Dump ship's entire track history